createdAt,value
2022-08-16T00:04:05.551Z,957.77
2022-08-16T00:09:07.349Z,957.72
2022-08-16T00:14:09.057Z,957.75
2022-08-16T00:19:10.175Z,957.76
2022-08-16T00:24:12.443Z,957.74
2022-08-16T00:29:15.484Z,957.74
2022-08-16T00:34:18.165Z,957.78
2022-08-16T00:39:17.374Z,957.78
2022-08-16T00:44:19.427Z,957.7
2022-08-16T00:49:20.261Z,957.74
2022-08-16T00:54:21.734Z,957.78
2022-08-16T00:59:23.969Z,957.79
2022-08-16T01:04:29.736Z,957.75
2022-08-16T01:09:33.117Z,957.79
2022-08-16T01:14:30.021Z,957.76
2022-08-16T01:19:31.071Z,957.74
2022-08-16T01:24:44.895Z,957.72
2022-08-16T01:29:35.773Z,957.69
2022-08-16T01:34:36.354Z,957.69
2022-08-16T01:39:37.712Z,957.62
2022-08-16T01:44:39.351Z,957.72
2022-08-16T01:49:43.443Z,957.67
2022-08-16T01:54:42.176Z,957.66
2022-08-16T01:59:43.345Z,957.71
2022-08-16T02:04:49.869Z,957.64
2022-08-16T02:09:57.617Z,957.66
2022-08-16T02:14:48.881Z,957.53
2022-08-16T02:19:58.177Z,957.48
2022-08-16T02:24:52.365Z,957.44
2022-08-16T02:30:05.401Z,957.47
2022-08-16T02:34:56.279Z,957.46
2022-08-16T02:39:56.405Z,957.41
2022-08-16T02:44:57.838Z,957.45
2022-08-16T02:50:52.967Z,957.37
2022-08-16T02:55:00.925Z,957.3
2022-08-16T03:00:05.004Z,957.28
2022-08-16T03:05:04.340Z,957.28
2022-08-16T03:10:05.800Z,957.35
2022-08-16T03:15:07.147Z,957.46
2022-08-16T03:20:08.899Z,957.56
2022-08-16T03:25:10.508Z,957.58
2022-08-16T03:30:15.174Z,957.59
2022-08-16T03:35:14.270Z,957.66
2022-08-16T03:40:30.580Z,957.63
2022-08-16T03:45:17.326Z,957.74
2022-08-16T03:50:25.448Z,957.7
2022-08-16T03:55:20.943Z,957.64
2022-08-16T04:00:35.618Z,957.7
2022-08-16T04:05:24.435Z,957.74
2022-08-16T04:10:36.494Z,957.61
2022-08-16T04:15:27.444Z,957.64
2022-08-16T04:20:31.527Z,957.7
2022-08-16T04:25:30.603Z,957.67
2022-08-16T04:30:34.915Z,957.72
2022-08-16T04:35:34.500Z,957.71
2022-08-16T04:40:35.980Z,957.73
2022-08-16T04:45:37.962Z,957.8
2022-08-16T04:50:43.406Z,957.83
2022-08-16T04:55:41.512Z,957.87
2022-08-16T05:00:42.996Z,957.89
2022-08-16T05:05:45.572Z,957.92
2022-08-16T05:10:46.124Z,957.95
2022-08-16T05:15:49.684Z,957.99
2022-08-16T05:21:01.556Z,958.05
2022-08-16T05:25:51.331Z,958.02
2022-08-16T05:30:53.285Z,958.01
2022-08-16T05:35:55.954Z,958.05
2022-08-16T05:40:57.355Z,958.1
2022-08-16T05:45:58.069Z,958.02
2022-08-16T05:50:59.788Z,958
2022-08-16T05:56:01.875Z,958.01
2022-08-16T06:01:03.236Z,958.05
2022-08-16T06:06:05.102Z,958.06
2022-08-16T06:11:10.588Z,958.06
2022-08-16T06:16:08.711Z,958.07
2022-08-16T06:21:10.167Z,958.07
2022-08-16T06:26:12.317Z,958.13
2022-08-16T06:31:13.932Z,958.07
2022-08-16T06:36:15.384Z,958.05
2022-08-16T06:41:17.464Z,958.11
2022-08-16T06:46:19.009Z,958.16
2022-08-16T06:51:20.897Z,958.15
2022-08-16T06:56:23.557Z,958.2
2022-08-16T07:01:43.043Z,958.26
2022-08-16T07:06:26.381Z,958.28
2022-08-16T07:11:45.460Z,958.21
2022-08-16T07:16:29.396Z,958.24
2022-08-16T07:21:46.019Z,958.23
2022-08-16T07:26:33.294Z,958.09
2022-08-16T07:31:37.723Z,958.04
2022-08-16T07:36:36.607Z,958.06
2022-08-16T07:41:38.393Z,958.04
2022-08-16T07:46:40.509Z,958.01
2022-08-16T07:51:42.369Z,958
2022-08-16T07:56:44.442Z,957.98
2022-08-16T08:01:46.015Z,958.04
2022-08-16T08:06:50.899Z,958.03
2022-08-16T08:11:59.642Z,958.02
2022-08-16T08:16:51.470Z,958.02
2022-08-16T08:21:58.616Z,958.04
2022-08-16T08:26:55.131Z,958.04
2022-08-16T08:31:57.267Z,958.06
2022-08-16T08:36:59.271Z,958.15
2022-08-16T08:42:00.604Z,958.14
2022-08-16T08:47:02.407Z,958.1
2022-08-16T08:52:08.062Z,958.07
2022-08-16T08:57:05.723Z,957.99
2022-08-16T09:02:07.599Z,958.02
2022-08-16T09:07:09.556Z,958.02
2022-08-16T09:12:30.296Z,958.06
2022-08-16T09:17:48.811Z,958.03
2022-08-16T09:22:19.713Z,958.02
2022-08-16T09:27:17.479Z,958
2022-08-16T09:32:25.578Z,957.98
2022-08-16T09:37:20.681Z,958.02
2022-08-16T09:42:22.279Z,957.99
2022-08-16T09:47:23.807Z,957.96
2022-08-16T09:52:26.462Z,957.94
2022-08-16T09:57:27.389Z,957.95
2022-08-16T10:02:29.303Z,958
2022-08-16T10:07:38.208Z,957.94
2022-08-16T10:12:42.344Z,957.84
2022-08-16T10:17:41.781Z,957.87
2022-08-16T10:22:43.533Z,957.9
2022-08-16T10:27:45.940Z,957.82
2022-08-16T10:32:46.436Z,957.73
2022-08-16T10:37:48.197Z,957.67
2022-08-16T10:42:50.217Z,957.75
2022-08-16T10:47:51.735Z,957.69
2022-08-16T10:52:56.982Z,957.69
2022-08-16T10:57:54.665Z,957.62
2022-08-16T11:02:57.351Z,957.72
2022-08-16T11:07:58.338Z,957.77
2022-08-16T11:13:20.995Z,957.82
2022-08-16T11:23:03.654Z,957.8
2022-08-16T11:28:05.676Z,957.78
2022-08-16T11:33:07.093Z,957.77
2022-08-16T11:38:24.151Z,957.73
2022-08-16T11:43:10.403Z,957.71
2022-08-16T11:48:11.686Z,957.73
2022-08-16T11:53:13.479Z,957.68
2022-08-16T11:58:14.709Z,957.66
2022-08-16T12:03:16.222Z,957.56
2022-08-16T12:08:18.343Z,957.55
2022-08-16T12:13:19.878Z,957.48
2022-08-16T12:18:21.597Z,957.46
2022-08-16T12:23:23.222Z,957.5
2022-08-16T12:28:25.488Z,957.43
2022-08-16T13:23:43.452Z,957.26
2022-08-16T13:28:46.211Z,957.2
2022-08-16T13:38:49.219Z,957.12
2022-08-16T13:48:51.367Z,957.13
2022-08-16T13:53:54.845Z,957.11
2022-08-16T13:58:55.442Z,957.07
2022-08-16T14:03:55.833Z,956.97
2022-08-16T14:08:58.737Z,956.98
2022-08-16T14:13:58.541Z,956.96
2022-08-16T14:19:00.436Z,957
2022-08-16T14:24:01.853Z,957.03
2022-08-16T14:29:04.161Z,957.02
2022-08-16T14:34:05.268Z,956.96
2022-08-16T14:39:06.738Z,956.94
2022-08-16T14:44:08.248Z,956.86
2022-08-16T14:49:09.599Z,956.9
2022-08-16T14:54:11.697Z,956.88
2022-08-16T14:59:13.381Z,956.92
2022-08-16T15:04:32.165Z,956.85
2022-08-16T15:09:16.930Z,956.87
2022-08-16T15:14:18.695Z,956.82
2022-08-16T15:19:20.250Z,956.85
2022-08-16T15:24:22.482Z,956.85
2022-08-16T15:29:23.726Z,956.84
2022-08-16T15:34:26.262Z,956.89
2022-08-16T15:39:31.877Z,956.96
2022-08-16T15:44:28.324Z,956.86
2022-08-16T15:49:34.450Z,956.91
2022-08-16T15:54:32.794Z,956.88
2022-08-16T15:59:34.726Z,956.91
2022-08-16T16:04:35.041Z,956.88
2022-08-16T16:09:37.388Z,956.81
2022-08-16T16:14:38.917Z,956.79
2022-08-16T16:19:40.316Z,956.79
2022-08-16T16:24:41.740Z,956.83
2022-08-16T16:29:46.265Z,956.82
2022-08-16T16:34:44.657Z,956.78
2022-08-16T16:39:46.412Z,956.74
2022-08-16T16:44:50.315Z,956.7
2022-08-16T16:49:50.139Z,956.64
2022-08-16T16:54:51.591Z,956.68
2022-08-16T16:59:55.577Z,956.69
2022-08-16T17:04:55.423Z,956.71
2022-08-16T17:09:56.961Z,956.69
2022-08-16T17:14:59.028Z,956.75
2022-08-16T17:20:01.047Z,956.83
2022-08-16T17:25:02.447Z,956.8
2022-08-16T17:30:14.708Z,956.83
2022-08-16T17:35:10.250Z,956.84
2022-08-16T17:40:09.529Z,956.91
2022-08-16T17:45:09.759Z,956.94
2022-08-16T17:50:11.814Z,957.02
2022-08-16T17:55:13.720Z,957
2022-08-16T18:00:20.161Z,957.06
2022-08-16T18:05:17.849Z,957.07
2022-08-16T18:10:28.188Z,957.12
2022-08-16T18:15:21.203Z,957.11
2022-08-16T18:20:22.576Z,957.12
2022-08-16T18:25:24.380Z,957.16
2022-08-16T18:30:25.740Z,957.14
2022-08-16T18:35:27.866Z,957.12
2022-08-16T18:40:30.027Z,957.14
2022-08-16T18:45:35.422Z,957.17
2022-08-16T18:50:58.645Z,957.25
2022-08-16T18:55:35.693Z,957.28
2022-08-16T19:00:45.624Z,957.24
2022-08-16T19:05:39.779Z,957.34
2022-08-16T19:10:41.583Z,957.35
2022-08-16T19:15:43.829Z,957.39
2022-08-16T19:20:45.579Z,957.56
2022-08-16T19:25:49.303Z,957.62
2022-08-16T19:30:48.793Z,957.65
2022-08-16T19:35:50.084Z,957.65
2022-08-16T19:40:51.992Z,957.68
2022-08-16T19:45:53.956Z,957.7
2022-08-16T19:50:56.008Z,957.75
2022-08-16T19:55:58.103Z,957.74
2022-08-16T20:01:00.057Z,957.84
2022-08-16T20:06:01.707Z,957.86
2022-08-16T20:11:03.432Z,957.85
2022-08-16T20:16:05.353Z,957.86
2022-08-16T20:21:07.417Z,957.95
2022-08-16T20:26:09.433Z,957.97
2022-08-16T20:31:10.906Z,957.98
2022-08-16T20:36:15.968Z,958
2022-08-16T20:41:13.952Z,958.08
2022-08-16T20:46:15.320Z,958.15
2022-08-16T20:51:16.913Z,958.18
2022-08-16T20:56:18.526Z,958.21
2022-08-16T21:01:20.167Z,958.17
2022-08-16T21:06:22.287Z,958.17
2022-08-16T21:11:24.104Z,958.22
2022-08-16T21:16:25.782Z,958.2
2022-08-16T21:21:32.053Z,958.16
2022-08-16T21:26:29.779Z,958.13
2022-08-16T21:31:31.270Z,958.13
2022-08-16T21:36:34.683Z,958.08
2022-08-16T21:41:33.926Z,958.16
2022-08-16T21:46:35.788Z,958.17
2022-08-16T21:51:37.469Z,958.16
2022-08-16T21:56:38.913Z,958.14
2022-08-16T22:11:59.577Z,958.16
2022-08-16T22:16:46.412Z,958.17
2022-08-16T22:21:48.587Z,958.23
2022-08-16T22:26:50.615Z,958.19
2022-08-16T22:31:52.679Z,958.19
2022-08-16T22:36:53.925Z,958.16
2022-08-16T22:41:55.746Z,958.18
2022-08-16T22:46:57.091Z,958.19
2022-08-16T22:51:59.290Z,958.16
2022-08-16T22:57:01.336Z,958.15
2022-08-16T23:02:02.588Z,958.19
2022-08-16T23:07:04.113Z,958.16
2022-08-16T23:12:05.203Z,958.11
2022-08-16T23:17:07.130Z,958.04
2022-08-16T23:22:08.562Z,958.03
2022-08-16T23:27:09.925Z,958
2022-08-16T23:32:11.576Z,958
2022-08-16T23:37:13.165Z,958.04
2022-08-16T23:42:14.393Z,958.11
2022-08-16T23:47:16.493Z,958.05
2022-08-16T23:52:18.413Z,958.04
2022-08-16T23:57:20.005Z,958.03
